sensor_id;sensor_type;location;lat;lon;timestamp;temperature;humidity
16437;DHT22;8328;52.206;21.006;2022-12-07T00:15:29;3.60;99.90
16437;DHT22;8328;52.206;21.006;2022-12-07T00:17:55;3.70;99.90
16437;DHT22;8328;52.206;21.006;2022-12-07T00:20:21;3.70;99.90
16437;DHT22;8328;52.206;21.006;2022-12-07T00:25:13;3.50;99.90
16437;DHT22;8328;52.206;21.006;2022-12-07T00:30:05;3.40;99.90
16437;DHT22;8328;52.206;21.006;2022-12-07T00:34:57;3.40;99.90
16437;DHT22;8328;52.206;21.006;2022-12-07T00:37:23;3.40;99.90
16437;DHT22;8328;52.206;21.006;2022-12-07T00:39:49;3.40;99.90
16437;DHT22;8328;52.206;21.006;2022-12-07T00:42:14;3.40;99.90
16437;DHT22;8328;52.206;21.006;2022-12-07T00:47:06;3.40;99.90
16437;DHT22;8328;52.206;21.006;2022-12-07T00:49:32;3.30;99.90
16437;DHT22;8328;52.206;21.006;2022-12-07T00:54:24;3.30;99.90
16437;DHT22;8328;52.206;21.006;2022-12-07T00:56:50;3.30;99.90
16437;DHT22;8328;52.206;21.006;2022-12-07T00:59:15;3.30;99.90
16437;DHT22;8328;52.206;21.006;2022-12-07T01:04:08;5.00;99.90
16437;DHT22;8328;52.206;21.006;2022-12-07T01:11:28;3.20;99.90
16437;DHT22;8328;52.206;21.006;2022-12-07T01:13:55;3.20;99.90
16437;DHT22;8328;52.206;21.006;2022-12-07T01:16:24;3.20;99.90
16437;DHT22;8328;52.206;21.006;2022-12-07T01:18:52;3.20;99.90
16437;DHT22;8328;52.206;21.006;2022-12-07T01:21:23;3.30;99.90
16437;DHT22;8328;52.206;21.006;2022-12-07T01:26:18;3.30;99.90
16437;DHT22;8328;52.206;21.006;2022-12-07T01:28:45;3.30;99.90
16437;DHT22;8328;52.206;21.006;2022-12-07T01:31:13;3.40;99.90
16437;DHT22;8328;52.206;21.006;2022-12-07T01:33:44;3.40;99.90
16437;DHT22;8328;52.206;21.006;2022-12-07T01:36:36;3.40;99.90
16437;DHT22;8328;52.206;21.006;2022-12-07T01:39:06;3.40;99.90
16437;DHT22;8328;52.206;21.006;2022-12-07T01:41:35;3.40;99.90
16437;DHT22;8328;52.206;21.006;2022-12-07T01:46:42;3.40;99.90
16437;DHT22;8328;52.206;21.006;2022-12-07T01:49:20;3.40;99.90
16437;DHT22;8328;52.206;21.006;2022-12-07T01:51:48;3.50;99.90
16437;DHT22;8328;52.206;21.006;2022-12-07T01:54:14;3.40;99.90
16437;DHT22;8328;52.206;21.006;2022-12-07T01:56:47;3.40;99.90
16437;DHT22;8328;52.206;21.006;2022-12-07T01:59:15;3.40;99.90
16437;DHT22;8328;52.206;21.006;2022-12-07T02:04:08;3.40;99.90
16437;DHT22;8328;52.206;21.006;2022-12-07T02:06:35;3.40;99.90
16437;DHT22;8328;52.206;21.006;2022-12-07T02:11:28;3.40;99.90
16437;DHT22;8328;52.206;21.006;2022-12-07T02:13:54;3.40;99.90
16437;DHT22;8328;52.206;21.006;2022-12-07T02:29:54;3.30;99.90
16437;DHT22;8328;52.206;21.006;2022-12-07T02:35:11;3.30;99.90
16437;DHT22;8328;52.206;21.006;2022-12-07T02:40:13;3.20;99.90
16437;DHT22;8328;52.206;21.006;2022-12-07T02:42:54;3.20;99.90
16437;DHT22;8328;52.206;21.006;2022-12-07T02:45:22;3.20;99.90
16437;DHT22;8328;52.206;21.006;2022-12-07T02:47:52;3.10;99.90
16437;DHT22;8328;52.206;21.006;2022-12-07T02:50:20;3.10;99.90
16437;DHT22;8328;52.206;21.006;2022-12-07T02:55:14;3.00;99.90
16437;DHT22;8328;52.206;21.006;2022-12-07T03:00:29;3.00;99.90
16437;DHT22;8328;52.206;21.006;2022-12-07T03:03:14;3.00;99.90
16437;DHT22;8328;52.206;21.006;2022-12-07T03:17:15;3.00;99.90
16437;DHT22;8328;52.206;21.006;2022-12-07T03:19:43;2.90;99.90
16437;DHT22;8328;52.206;21.006;2022-12-07T03:22:12;3.00;99.90
16437;DHT22;8328;52.206;21.006;2022-12-07T03:24:53;2.90;99.90
16437;DHT22;8328;52.206;21.006;2022-12-07T03:27:24;3.00;99.90
16437;DHT22;8328;52.206;21.006;2022-12-07T03:30:02;3.20;99.90
16437;DHT22;8328;52.206;21.006;2022-12-07T03:32:37;3.20;99.90
16437;DHT22;8328;52.206;21.006;2022-12-07T03:35:18;3.10;99.90
16437;DHT22;8328;52.206;21.006;2022-12-07T03:40:26;3.10;99.90
16437;DHT22;8328;52.206;21.006;2022-12-07T03:42:55;3.20;99.90
16437;DHT22;8328;52.206;21.006;2022-12-07T03:45:25;3.10;99.90
16437;DHT22;8328;52.206;21.006;2022-12-07T03:48:08;3.10;99.90
16437;DHT22;8328;52.206;21.006;2022-12-07T03:50:52;3.20;99.90
16437;DHT22;8328;52.206;21.006;2022-12-07T03:53:27;3.20;99.90
16437;DHT22;8328;52.206;21.006;2022-12-07T03:55:56;3.10;99.90
16437;DHT22;8328;52.206;21.006;2022-12-07T03:58:24;3.10;99.90
16437;DHT22;8328;52.206;21.006;2022-12-07T04:00:50;3.10;99.90
16437;DHT22;8328;52.206;21.006;2022-12-07T04:03:17;3.00;99.90
16437;DHT22;8328;52.206;21.006;2022-12-07T04:05:43;3.10;99.90
16437;DHT22;8328;52.206;21.006;2022-12-07T04:08:09;3.00;99.90
16437;DHT22;8328;52.206;21.006;2022-12-07T04:10:35;3.10;99.90
16437;DHT22;8328;52.206;21.006;2022-12-07T04:13:01;3.00;99.90
16437;DHT22;8328;52.206;21.006;2022-12-07T04:15:27;3.00;99.90
16437;DHT22;8328;52.206;21.006;2022-12-07T04:17:53;3.00;99.90
16437;DHT22;8328;52.206;21.006;2022-12-07T04:20:20;3.10;99.90
16437;DHT22;8328;52.206;21.006;2022-12-07T04:22:46;3.20;99.90
16437;DHT22;8328;52.206;21.006;2022-12-07T04:27:38;3.10;99.90
16437;DHT22;8328;52.206;21.006;2022-12-07T04:30:04;1.90;99.90
16437;DHT22;8328;52.206;21.006;2022-12-07T04:37:23;3.00;99.90
16437;DHT22;8328;52.206;21.006;2022-12-07T04:39:49;3.00;99.90
16437;DHT22;8328;52.206;21.006;2022-12-07T04:42:15;3.10;99.90
16437;DHT22;8328;52.206;21.006;2022-12-07T04:49:33;3.30;99.90
16437;DHT22;8328;52.206;21.006;2022-12-07T04:51:59;3.20;99.90
16437;DHT22;8328;52.206;21.006;2022-12-07T04:54:24;3.30;99.90
16437;DHT22;8328;52.206;21.006;2022-12-07T04:59:17;3.30;99.90
16437;DHT22;8328;52.206;21.006;2022-12-07T05:04:09;3.40;99.90
16437;DHT22;8328;52.206;21.006;2022-12-07T05:09:02;3.40;99.90
16437;DHT22;8328;52.206;21.006;2022-12-07T05:14:04;3.20;99.90
16437;DHT22;8328;52.206;21.006;2022-12-07T05:16:31;3.20;99.90
16437;DHT22;8328;52.206;21.006;2022-12-07T05:18:57;3.10;99.90
16437;DHT22;8328;52.206;21.006;2022-12-07T05:21:23;3.10;99.90
16437;DHT22;8328;52.206;21.006;2022-12-07T05:26:15;3.10;99.90
16437;DHT22;8328;52.206;21.006;2022-12-07T05:28:41;3.10;99.90
16437;DHT22;8328;52.206;21.006;2022-12-07T05:41:00;3.00;99.90
16437;DHT22;8328;52.206;21.006;2022-12-07T05:45:53;2.90;99.90
16437;DHT22;8328;52.206;21.006;2022-12-07T05:50:48;2.90;99.90
16437;DHT22;8328;52.206;21.006;2022-12-07T05:55:40;2.80;99.90
16437;DHT22;8328;52.206;21.006;2022-12-07T05:58:06;2.80;99.90
16437;DHT22;8328;52.206;21.006;2022-12-07T06:03:16;3.00;99.90
16437;DHT22;8328;52.206;21.006;2022-12-07T06:08:08;3.00;99.90
16437;DHT22;8328;52.206;21.006;2022-12-07T06:15:26;2.90;99.90
16437;DHT22;8328;52.206;21.006;2022-12-07T06:17:52;2.90;99.90
16437;DHT22;8328;52.206;21.006;2022-12-07T06:22:44;2.90;99.90
16437;DHT22;8328;52.206;21.006;2022-12-07T06:25:09;3.00;99.90
16437;DHT22;8328;52.206;21.006;2022-12-07T06:27:35;3.00;99.90
16437;DHT22;8328;52.206;21.006;2022-12-07T06:32:32;3.00;99.90
16437;DHT22;8328;52.206;21.006;2022-12-07T06:34:59;3.00;99.90
16437;DHT22;8328;52.206;21.006;2022-12-07T06:47:12;2.90;99.90
16437;DHT22;8328;52.206;21.006;2022-12-07T06:52:04;2.90;99.90
16437;DHT22;8328;52.206;21.006;2022-12-07T06:56:57;2.90;99.90
16437;DHT22;8328;52.206;21.006;2022-12-07T06:59:23;3.00;99.90
16437;DHT22;8328;52.206;21.006;2022-12-07T07:01:48;3.10;99.90
16437;DHT22;8328;52.206;21.006;2022-12-07T07:04:14;3.10;99.90
16437;DHT22;8328;52.206;21.006;2022-12-07T07:06:40;3.10;99.90
16437;DHT22;8328;52.206;21.006;2022-12-07T07:09:06;3.00;99.90
16437;DHT22;8328;52.206;21.006;2022-12-07T07:13:58;3.00;99.90
16437;DHT22;8328;52.206;21.006;2022-12-07T07:16:29;3.30;99.90
16437;DHT22;8328;52.206;21.006;2022-12-07T07:21:22;3.90;99.90
16437;DHT22;8328;52.206;21.006;2022-12-07T07:31:06;4.30;99.90
16437;DHT22;8328;52.206;21.006;2022-12-07T07:35:58;3.80;99.90
16437;DHT22;8328;52.206;21.006;2022-12-07T07:38:24;3.70;99.90
16437;DHT22;8328;52.206;21.006;2022-12-07T07:40:50;3.60;99.90
16437;DHT22;8328;52.206;21.006;2022-12-07T07:43:15;3.40;99.90
16437;DHT22;8328;52.206;21.006;2022-12-07T08:10:04;3.40;99.90
16437;DHT22;8328;52.206;21.006;2022-12-07T08:44:13;3.40;99.90
16437;DHT22;8328;52.206;21.006;2022-12-07T08:47:04;3.40;99.90
16437;DHT22;8328;52.206;21.006;2022-12-07T08:49:39;3.40;99.90
16437;DHT22;8328;52.206;21.006;2022-12-07T08:54:35;3.40;99.90
16437;DHT22;8328;52.206;21.006;2022-12-07T08:57:02;3.60;99.90
16437;DHT22;8328;52.206;21.006;2022-12-07T09:09:14;3.80;99.90
16437;DHT22;8328;52.206;21.006;2022-12-07T09:18:58;4.30;99.90
16437;DHT22;8328;52.206;21.006;2022-12-07T09:33:35;4.40;99.90
16437;DHT22;8328;52.206;21.006;2022-12-07T09:36:01;4.40;99.90
16437;DHT22;8328;52.206;21.006;2022-12-07T09:38:28;4.50;99.90
16437;DHT22;8328;52.206;21.006;2022-12-07T09:40:55;4.70;99.90
16437;DHT22;8328;52.206;21.006;2022-12-07T09:43:24;4.70;99.90
16437;DHT22;8328;52.206;21.006;2022-12-07T09:45:55;4.80;99.90
16437;DHT22;8328;52.206;21.006;2022-12-07T09:48:34;4.80;99.90
16437;DHT22;8328;52.206;21.006;2022-12-07T09:51:14;4.80;99.90
16437;DHT22;8328;52.206;21.006;2022-12-07T09:53:41;5.00;99.90
16437;DHT22;8328;52.206;21.006;2022-12-07T09:56:11;5.10;99.90
16437;DHT22;8328;52.206;21.006;2022-12-07T09:58:39;5.20;99.90
16437;DHT22;8328;52.206;21.006;2022-12-07T10:03:36;5.10;99.90
16437;DHT22;8328;52.206;21.006;2022-12-07T10:06:04;5.00;99.90
16437;DHT22;8328;52.206;21.006;2022-12-07T10:10:57;5.30;99.90
16437;DHT22;8328;52.206;21.006;2022-12-07T10:13:38;5.30;99.90
16437;DHT22;8328;52.206;21.006;2022-12-07T10:16:04;5.20;99.90
16437;DHT22;8328;52.206;21.006;2022-12-07T10:18:35;5.30;99.90
16437;DHT22;8328;52.206;21.006;2022-12-07T10:23:38;5.10;99.90
16437;DHT22;8328;52.206;21.006;2022-12-07T10:26:28;5.10;99.90
16437;DHT22;8328;52.206;21.006;2022-12-07T10:28:56;5.00;99.90
16437;DHT22;8328;52.206;21.006;2022-12-07T10:33:54;5.00;99.90
16437;DHT22;8328;52.206;21.006;2022-12-07T10:36:24;4.90;99.90
16437;DHT22;8328;52.206;21.006;2022-12-07T10:38:59;5.00;99.90
16437;DHT22;8328;52.206;21.006;2022-12-07T10:41:26;4.90;99.90
16437;DHT22;8328;52.206;21.006;2022-12-07T10:43:54;4.90;99.90
16437;DHT22;8328;52.206;21.006;2022-12-07T10:54:36;5.00;99.90
16437;DHT22;8328;52.206;21.006;2022-12-07T11:15:56;4.90;99.90
16437;DHT22;8328;52.206;21.006;2022-12-07T11:32:30;4.90;99.90
16437;DHT22;8328;52.206;21.006;2022-12-07T11:37:58;4.70;99.90
16437;DHT22;8328;52.206;21.006;2022-12-07T11:40:34;4.80;99.90
16437;DHT22;8328;52.206;21.006;2022-12-07T11:43:13;4.80;99.90
16437;DHT22;8328;52.206;21.006;2022-12-07T11:45:50;4.90;99.90
16437;DHT22;8328;52.206;21.006;2022-12-07T11:49:04;5.00;99.90
16437;DHT22;8328;52.206;21.006;2022-12-07T11:51:38;5.00;99.90
16437;DHT22;8328;52.206;21.006;2022-12-07T11:54:23;5.10;99.90
16437;DHT22;8328;52.206;21.006;2022-12-07T11:56:51;5.30;99.90
16437;DHT22;8328;52.206;21.006;2022-12-07T11:59:32;5.30;99.90
16437;DHT22;8328;52.206;21.006;2022-12-07T12:02:34;5.30;99.90
16437;DHT22;8328;52.206;21.006;2022-12-07T12:05:23;5.40;99.90
16437;DHT22;8328;52.206;21.006;2022-12-07T12:08:18;5.40;99.90
16437;DHT22;8328;52.206;21.006;2022-12-07T12:20:46;4.60;99.90
16437;DHT22;8328;52.206;21.006;2022-12-07T12:23:18;4.60;99.90
16437;DHT22;8328;52.206;21.006;2022-12-07T12:25:49;4.80;99.90
16437;DHT22;8328;52.206;21.006;2022-12-07T12:28:48;4.90;99.90
16437;DHT22;8328;52.206;21.006;2022-12-07T12:31:15;5.00;99.90
16437;DHT22;8328;52.206;21.006;2022-12-07T12:33:51;5.00;99.90
16437;DHT22;8328;52.206;21.006;2022-12-07T12:36:27;5.00;99.90
16437;DHT22;8328;52.206;21.006;2022-12-07T12:39:16;5.10;99.90
16437;DHT22;8328;52.206;21.006;2022-12-07T12:51:49;5.60;99.90
16437;DHT22;8328;52.206;21.006;2022-12-07T12:54:22;4.80;99.90
16437;DHT22;8328;52.206;21.006;2022-12-07T12:57:09;4.70;99.90
16437;DHT22;8328;52.206;21.006;2022-12-07T12:59:55;4.70;99.90
16437;DHT22;8328;52.206;21.006;2022-12-07T13:02:38;4.70;99.90
16437;DHT22;8328;52.206;21.006;2022-12-07T13:07:49;4.60;99.90
16437;DHT22;8328;52.206;21.006;2022-12-07T13:10:37;4.70;99.90
16437;DHT22;8328;52.206;21.006;2022-12-07T13:15:52;4.60;99.90
16437;DHT22;8328;52.206;21.006;2022-12-07T13:28:39;4.40;99.90
16437;DHT22;8328;52.206;21.006;2022-12-07T13:33:38;4.50;99.90
16437;DHT22;8328;52.206;21.006;2022-12-07T13:36:08;4.60;99.90
16437;DHT22;8328;52.206;21.006;2022-12-07T13:41:49;4.30;99.90
16437;DHT22;8328;52.206;21.006;2022-12-07T13:44:16;4.30;99.90
16437;DHT22;8328;52.206;21.006;2022-12-07T13:49:24;4.20;99.90
16437;DHT22;8328;52.206;21.006;2022-12-07T13:51:52;4.20;99.90
16437;DHT22;8328;52.206;21.006;2022-12-07T13:54:19;4.20;99.90
16437;DHT22;8328;52.206;21.006;2022-12-07T13:56:51;4.10;99.90
16437;DHT22;8328;52.206;21.006;2022-12-07T13:59:25;4.10;99.90
16437;DHT22;8328;52.206;21.006;2022-12-07T14:01:52;4.10;99.90
16437;DHT22;8328;52.206;21.006;2022-12-07T14:06:50;4.10;99.90
16437;DHT22;8328;52.206;21.006;2022-12-07T14:09:27;4.10;99.90
16437;DHT22;8328;52.206;21.006;2022-12-07T14:11:55;4.00;99.90
16437;DHT22;8328;52.206;21.006;2022-12-07T14:14:31;4.00;99.90
16437;DHT22;8328;52.206;21.006;2022-12-07T14:22:15;3.90;99.90
16437;DHT22;8328;52.206;21.006;2022-12-07T14:24:44;3.70;99.90
16437;DHT22;8328;52.206;21.006;2022-12-07T14:27:23;3.70;99.90
16437;DHT22;8328;52.206;21.006;2022-12-07T14:29:51;3.70;99.90
16437;DHT22;8328;52.206;21.006;2022-12-07T14:32:22;3.70;99.90
16437;DHT22;8328;52.206;21.006;2022-12-07T14:35:03;3.60;99.90
16437;DHT22;8328;52.206;21.006;2022-12-07T14:37:37;3.50;99.90
16437;DHT22;8328;52.206;21.006;2022-12-07T14:40:03;3.40;99.90
16437;DHT22;8328;52.206;21.006;2022-12-07T14:42:30;3.40;99.90
16437;DHT22;8328;52.206;21.006;2022-12-07T14:44:57;3.40;99.90
16437;DHT22;8328;52.206;21.006;2022-12-07T14:47:24;3.30;99.90
16437;DHT22;8328;52.206;21.006;2022-12-07T14:49:55;3.30;99.90
16437;DHT22;8328;52.206;21.006;2022-12-07T14:52:24;3.40;99.90
16437;DHT22;8328;52.206;21.006;2022-12-07T14:59:47;3.30;99.90
16437;DHT22;8328;52.206;21.006;2022-12-07T15:02:14;3.30;99.90
16437;DHT22;8328;52.206;21.006;2022-12-07T15:04:42;3.30;99.90
16437;DHT22;8328;52.206;21.006;2022-12-07T15:07:18;3.30;99.90
16437;DHT22;8328;52.206;21.006;2022-12-07T15:09:48;3.30;99.90
16437;DHT22;8328;52.206;21.006;2022-12-07T15:17:10;3.40;99.90
16437;DHT22;8328;52.206;21.006;2022-12-07T15:24:29;3.60;99.90
16437;DHT22;8328;52.206;21.006;2022-12-07T15:31:49;3.60;99.90
16437;DHT22;8328;52.206;21.006;2022-12-07T15:36:41;3.70;99.90
16437;DHT22;8328;52.206;21.006;2022-12-07T15:39:08;3.70;99.90
16437;DHT22;8328;52.206;21.006;2022-12-07T15:41:35;3.80;99.90
16437;DHT22;8328;52.206;21.006;2022-12-07T15:46:45;3.60;99.90
16437;DHT22;8328;52.206;21.006;2022-12-07T15:49:20;3.60;99.90
16437;DHT22;8328;52.206;21.006;2022-12-07T15:54:21;3.40;99.90
16437;DHT22;8328;52.206;21.006;2022-12-07T15:56:47;3.50;99.90
16437;DHT22;8328;52.206;21.006;2022-12-07T15:59:13;3.50;99.90
16437;DHT22;8328;52.206;21.006;2022-12-07T16:04:05;3.50;99.90
16437;DHT22;8328;52.206;21.006;2022-12-07T16:16:17;3.70;99.90
16437;DHT22;8328;52.206;21.006;2022-12-07T16:18:45;3.70;99.90
16437;DHT22;8328;52.206;21.006;2022-12-07T16:21:11;3.70;99.90
16437;DHT22;8328;52.206;21.006;2022-12-07T16:23:37;3.60;99.90
16437;DHT22;8328;52.206;21.006;2022-12-07T16:31:04;3.40;99.90
16437;DHT22;8328;52.206;21.006;2022-12-07T16:33:35;3.30;99.90
16437;DHT22;8328;52.206;21.006;2022-12-07T16:36:02;3.30;99.90
16437;DHT22;8328;52.206;21.006;2022-12-07T16:38:28;3.40;99.90
16437;DHT22;8328;52.206;21.006;2022-12-07T16:40:54;3.40;99.90
16437;DHT22;8328;52.206;21.006;2022-12-07T16:48:14;3.50;99.90
16437;DHT22;8328;52.206;21.006;2022-12-07T16:50:40;3.50;99.90
16437;DHT22;8328;52.206;21.006;2022-12-07T16:53:08;3.50;99.90
16437;DHT22;8328;52.206;21.006;2022-12-07T16:55:38;3.40;99.90
16437;DHT22;8328;52.206;21.006;2022-12-07T16:58:05;3.50;99.90
16437;DHT22;8328;52.206;21.006;2022-12-07T17:07:53;3.60;99.90
16437;DHT22;8328;52.206;21.006;2022-12-07T17:10:28;3.60;99.90
16437;DHT22;8328;52.206;21.006;2022-12-07T17:17:52;3.70;99.90
16437;DHT22;8328;52.206;21.006;2022-12-07T17:20:19;3.70;99.90
16437;DHT22;8328;52.206;21.006;2022-12-07T17:22:45;3.70;99.90
16437;DHT22;8328;52.206;21.006;2022-12-07T17:25:11;3.70;99.90
16437;DHT22;8328;52.206;21.006;2022-12-07T17:30:06;3.50;99.90
16437;DHT22;8328;52.206;21.006;2022-12-07T17:32:32;3.40;99.90
16437;DHT22;8328;52.206;21.006;2022-12-07T17:34:58;3.40;99.90
16437;DHT22;8328;52.206;21.006;2022-12-07T17:37:24;3.40;99.90
16437;DHT22;8328;52.206;21.006;2022-12-07T17:39:52;3.40;99.90
16437;DHT22;8328;52.206;21.006;2022-12-07T17:42:19;3.50;99.90
16437;DHT22;8328;52.206;21.006;2022-12-07T17:45:07;3.60;99.90
16437;DHT22;8328;52.206;21.006;2022-12-07T18:00:04;3.80;99.90
16437;DHT22;8328;52.206;21.006;2022-12-07T18:02:31;3.70;99.90
16437;DHT22;8328;52.206;21.006;2022-12-07T18:04:56;3.70;99.90
16437;DHT22;8328;52.206;21.006;2022-12-07T18:14:41;3.80;99.90
16437;DHT22;8328;52.206;21.006;2022-12-07T18:19:32;3.70;99.90
16437;DHT22;8328;52.206;21.006;2022-12-07T18:24:28;3.70;99.90
16437;DHT22;8328;52.206;21.006;2022-12-07T18:26:54;3.70;99.90
16437;DHT22;8328;52.206;21.006;2022-12-07T18:29:19;3.80;99.90
16437;DHT22;8328;52.206;21.006;2022-12-07T18:31:46;3.80;99.90
16437;DHT22;8328;52.206;21.006;2022-12-07T18:34:17;3.80;99.90
16437;DHT22;8328;52.206;21.006;2022-12-07T18:36:46;3.80;99.90
16437;DHT22;8328;52.206;21.006;2022-12-07T18:39:15;3.70;99.90
16437;DHT22;8328;52.206;21.006;2022-12-07T18:41:42;3.60;99.90
16437;DHT22;8328;52.206;21.006;2022-12-07T18:44:08;3.50;99.90
16437;DHT22;8328;52.206;21.006;2022-12-07T18:46:34;3.60;99.90
16437;DHT22;8328;52.206;21.006;2022-12-07T18:53:56;3.30;99.90
16437;DHT22;8328;52.206;21.006;2022-12-07T18:56:24;3.10;99.90
16437;DHT22;8328;52.206;21.006;2022-12-07T18:58:52;3.00;99.90
16437;DHT22;8328;52.206;21.006;2022-12-07T19:06:30;3.10;99.90
16437;DHT22;8328;52.206;21.006;2022-12-07T19:08:56;3.00;99.90
16437;DHT22;8328;52.206;21.006;2022-12-07T19:11:25;3.10;99.90
16437;DHT22;8328;52.206;21.006;2022-12-07T19:16:37;3.00;99.90
16437;DHT22;8328;52.206;21.006;2022-12-07T19:19:06;3.00;99.90
16437;DHT22;8328;52.206;21.006;2022-12-07T19:26:23;3.00;99.90
16437;DHT22;8328;52.206;21.006;2022-12-07T19:36:08;2.90;99.90
16437;DHT22;8328;52.206;21.006;2022-12-07T19:41:09;2.70;99.90
16437;DHT22;8328;52.206;21.006;2022-12-07T19:43:58;2.70;99.90
16437;DHT22;8328;52.206;21.006;2022-12-07T19:53:44;2.70;99.90
16437;DHT22;8328;52.206;21.006;2022-12-07T19:56:14;2.70;99.90
16437;DHT22;8328;52.206;21.006;2022-12-07T20:10:53;2.60;99.90
16437;DHT22;8328;52.206;21.006;2022-12-07T20:13:22;2.60;99.90
16437;DHT22;8328;52.206;21.006;2022-12-07T20:15:57;2.50;99.90
16437;DHT22;8328;52.206;21.006;2022-12-07T20:18:26;2.40;99.90
16437;DHT22;8328;52.206;21.006;2022-12-07T20:20:58;2.20;99.90
16437;DHT22;8328;52.206;21.006;2022-12-07T20:23:25;2.10;99.90
16437;DHT22;8328;52.206;21.006;2022-12-07T20:30:52;2.00;99.90
16437;DHT22;8328;52.206;21.006;2022-12-07T20:33:18;2.10;99.90
16437;DHT22;8328;52.206;21.006;2022-12-07T20:35:45;2.10;99.90
16437;DHT22;8328;52.206;21.006;2022-12-07T20:38:12;2.20;99.90
16437;DHT22;8328;52.206;21.006;2022-12-07T20:40:38;2.10;99.90
16437;DHT22;8328;52.206;21.006;2022-12-07T20:43:04;2.10;99.90
16437;DHT22;8328;52.206;21.006;2022-12-07T20:45:30;2.10;99.90
16437;DHT22;8328;52.206;21.006;2022-12-07T20:47:56;2.00;99.90
16437;DHT22;8328;52.206;21.006;2022-12-07T20:50:22;1.90;99.90
16437;DHT22;8328;52.206;21.006;2022-12-07T20:52:47;1.80;99.90
16437;DHT22;8328;52.206;21.006;2022-12-07T20:55:13;1.70;99.90
16437;DHT22;8328;52.206;21.006;2022-12-07T20:57:39;1.60;99.90
16437;DHT22;8328;52.206;21.006;2022-12-07T21:00:06;1.60;99.90
16437;DHT22;8328;52.206;21.006;2022-12-07T21:02:33;1.60;99.90
16437;DHT22;8328;52.206;21.006;2022-12-07T21:04:59;1.60;99.90
16437;DHT22;8328;52.206;21.006;2022-12-07T21:07:24;1.70;99.90
16437;DHT22;8328;52.206;21.006;2022-12-07T21:09:51;1.80;99.90
16437;DHT22;8328;52.206;21.006;2022-12-07T21:12:17;1.80;99.90
16437;DHT22;8328;52.206;21.006;2022-12-07T21:14:44;1.60;99.90
16437;DHT22;8328;52.206;21.006;2022-12-07T21:17:10;1.50;99.90
16437;DHT22;8328;52.206;21.006;2022-12-07T21:19:37;1.40;99.90
16437;DHT22;8328;52.206;21.006;2022-12-07T21:22:03;1.30;99.90
16437;DHT22;8328;52.206;21.006;2022-12-07T21:24:29;1.30;99.90
16437;DHT22;8328;52.206;21.006;2022-12-07T21:26:55;1.30;99.90
16437;DHT22;8328;52.206;21.006;2022-12-07T21:29:21;1.30;99.90
16437;DHT22;8328;52.206;21.006;2022-12-07T21:31:47;1.50;99.90
16437;DHT22;8328;52.206;21.006;2022-12-07T21:34:13;1.50;99.90
16437;DHT22;8328;52.206;21.006;2022-12-07T21:36:38;1.60;99.90
16437;DHT22;8328;52.206;21.006;2022-12-07T21:39:04;1.70;99.90
16437;DHT22;8328;52.206;21.006;2022-12-07T21:41:32;1.70;99.90
16437;DHT22;8328;52.206;21.006;2022-12-07T21:44:00;1.70;99.90
16437;DHT22;8328;52.206;21.006;2022-12-07T21:46:27;1.70;99.90
16437;DHT22;8328;52.206;21.006;2022-12-07T21:48:56;1.80;99.90
16437;DHT22;8328;52.206;21.006;2022-12-07T21:51:24;1.70;99.90
16437;DHT22;8328;52.206;21.006;2022-12-07T21:53:53;1.80;99.90
16437;DHT22;8328;52.206;21.006;2022-12-07T21:56:24;1.70;99.90
16437;DHT22;8328;52.206;21.006;2022-12-07T21:58:51;1.80;99.90
16437;DHT22;8328;52.206;21.006;2022-12-07T22:01:19;1.80;99.90
16437;DHT22;8328;52.206;21.006;2022-12-07T22:03:46;1.70;99.90
16437;DHT22;8328;52.206;21.006;2022-12-07T22:06:14;1.60;99.90
16437;DHT22;8328;52.206;21.006;2022-12-07T22:08:41;1.70;99.90
16437;DHT22;8328;52.206;21.006;2022-12-07T22:11:08;1.70;99.90
16437;DHT22;8328;52.206;21.006;2022-12-07T22:13:35;1.70;99.90
16437;DHT22;8328;52.206;21.006;2022-12-07T22:16:19;1.90;99.90
16437;DHT22;8328;52.206;21.006;2022-12-07T22:18:45;2.00;99.90
16437;DHT22;8328;52.206;21.006;2022-12-07T22:21:10;2.00;99.90
16437;DHT22;8328;52.206;21.006;2022-12-07T22:23:36;2.10;99.90
16437;DHT22;8328;52.206;21.006;2022-12-07T22:26:06;2.20;99.90
16437;DHT22;8328;52.206;21.006;2022-12-07T22:28:35;2.30;99.90
16437;DHT22;8328;52.206;21.006;2022-12-07T22:31:04;2.30;99.90
16437;DHT22;8328;52.206;21.006;2022-12-07T22:33:31;2.20;99.90
16437;DHT22;8328;52.206;21.006;2022-12-07T22:35:57;2.20;99.90
16437;DHT22;8328;52.206;21.006;2022-12-07T22:38:23;2.30;99.90
16437;DHT22;8328;52.206;21.006;2022-12-07T22:40:49;2.20;99.90
16437;DHT22;8328;52.206;21.006;2022-12-07T22:43:14;2.10;99.90
16437;DHT22;8328;52.206;21.006;2022-12-07T22:45:40;2.10;99.90
16437;DHT22;8328;52.206;21.006;2022-12-07T22:48:07;2.00;99.90
16437;DHT22;8328;52.206;21.006;2022-12-07T22:50:33;2.00;99.90
16437;DHT22;8328;52.206;21.006;2022-12-07T22:52:59;2.00;99.90
16437;DHT22;8328;52.206;21.006;2022-12-07T22:55:25;2.10;99.90
16437;DHT22;8328;52.206;21.006;2022-12-07T22:57:51;2.30;99.90
16437;DHT22;8328;52.206;21.006;2022-12-07T23:00:17;2.40;99.90
16437;DHT22;8328;52.206;21.006;2022-12-07T23:02:44;2.50;99.90
16437;DHT22;8328;52.206;21.006;2022-12-07T23:05:10;2.50;99.90
16437;DHT22;8328;52.206;21.006;2022-12-07T23:07:36;2.50;99.90
16437;DHT22;8328;52.206;21.006;2022-12-07T23:10:03;2.50;99.90
16437;DHT22;8328;52.206;21.006;2022-12-07T23:12:30;2.50;99.90
16437;DHT22;8328;52.206;21.006;2022-12-07T23:15:14;2.50;99.90
16437;DHT22;8328;52.206;21.006;2022-12-07T23:17:41;2.50;99.90
16437;DHT22;8328;52.206;21.006;2022-12-07T23:20:07;2.30;99.90
16437;DHT22;8328;52.206;21.006;2022-12-07T23:22:33;2.30;99.90
16437;DHT22;8328;52.206;21.006;2022-12-07T23:24:58;2.40;99.90
16437;DHT22;8328;52.206;21.006;2022-12-07T23:27:24;2.40;99.90
16437;DHT22;8328;52.206;21.006;2022-12-07T23:29:50;2.40;99.90
16437;DHT22;8328;52.206;21.006;2022-12-07T23:32:16;2.40;99.90
16437;DHT22;8328;52.206;21.006;2022-12-07T23:34:42;2.50;99.90
16437;DHT22;8328;52.206;21.006;2022-12-07T23:37:08;2.50;99.90
16437;DHT22;8328;52.206;21.006;2022-12-07T23:39:34;2.50;99.90
16437;DHT22;8328;52.206;21.006;2022-12-07T23:42:00;2.50;99.90
16437;DHT22;8328;52.206;21.006;2022-12-07T23:44:26;2.60;99.90
16437;DHT22;8328;52.206;21.006;2022-12-07T23:46:52;2.70;99.90
16437;DHT22;8328;52.206;21.006;2022-12-07T23:49:17;2.60;99.90
16437;DHT22;8328;52.206;21.006;2022-12-07T23:51:43;2.60;99.90
16437;DHT22;8328;52.206;21.006;2022-12-07T23:54:11;2.60;99.90
16437;DHT22;8328;52.206;21.006;2022-12-07T23:56:38;2.50;99.90
16437;DHT22;8328;52.206;21.006;2022-12-07T23:59:05;2.50;99.90
